Latest Weather Observations for Parawa West

IDS60901

Issued at 1:45 pm CST Monday 28 July 2014 (issued every 10 minutes, with the page automatically refreshed every 10 minutes)

About weather observations | Map of Adelaide area stations | Latest observations for Adelaide area | Other Formats
Station Details ID: 023875 Name: SECOND VALLEY FOREST AWS Lat: -35.57 Lon: 138.29 Height: 341.0 m
Data from the previous 72 hours. | See also: Recent months at Parawa West
Date/Time
CST
Tmp

°C
App
Tmp
°C
Dew
Point
°C
Rel
Hum
%
Delta-T

°C
Wind Press
QNH
hPa
Press
MSL
hPa
Rain
since
9 am
mm
Dir
 
Spd
km/h
Gust
km/h
Spd
kts
Gust
kts
28/01:30pm 12.6 7.7 11.2 91 0.7 NW 28 46 15 25 1014.5 1014.8 0.0
28/01:06pm 12.1 7.0 10.7 91 0.7 NW 28 46 15 25 1014.8 - 0.0
28/01:00pm 12.0 6.7 11.2 95 0.4 NW 30 46 16 25 1014.9 - 0.0
28/12:38pm 11.6 6.2 11.0 96 0.3 NW 30 52 16 28 1015.0 - 0.0
28/12:30pm 11.6 6.6 11.1 97 0.3 NW 28 44 15 24 1015.3 1015.6 0.0
28/12:00pm 11.4 7.1 10.8 96 0.3 NW 24 37 13 20 1015.7 1016.0 0.0
28/11:30am 11.0 6.7 10.7 98 0.2 NW 24 41 13 22 1016.1 1016.4 0.0
28/11:00am 10.8 6.5 10.8 100 0.0 NW 24 44 13 24 1016.3 - 0.0
28/10:30am 10.9 6.3 10.9 100 0.0 NW 26 37 14 20 1016.5 1016.9 0.0
28/10:00am 11.0 6.8 11.0 100 0.0 NW 24 39 13 21 1016.8 - 0.0
28/09:30am 10.8 6.9 10.8 100 0.0 NW 22 33 12 18 1016.9 1017.3 0.0
28/09:00am 11.1 7.9 11.1 100 0.0 NW 19 33 10 18 1016.7 1017.1 0.0
28/08:30am 11.0 7.5 11.0 100 0.0 NW 20 33 11 18 1016.5 1016.9 0.0
28/08:00am 10.9 7.6 10.9 100 0.0 NW 19 30 10 16 1016.5 - 0.0
28/07:30am 11.0 7.5 11.0 100 0.0 NW 20 35 11 19 1016.4 1016.8 0.0
28/07:00am 10.9 7.4 10.9 100 0.0 NW 20 35 11 19 1016.0 - 0.0
28/06:30am 11.0 7.7 11.0 100 0.0 NW 19 30 10 16 1015.9 1016.2 0.0
28/06:00am 11.1 7.9 11.1 100 0.0 NW 19 28 10 15 1015.7 1016.0 0.0
28/05:30am 11.2 8.0 11.2 100 0.0 NW 19 28 10 15 1015.9 1016.2 0.0
28/05:00am 11.1 8.6 11.1 100 0.0 NW 15 26 8 14 1016.1 - 0.0
28/04:30am 11.0 8.4 10.8 99 0.1 NW 15 26 8 14 1016.2 1016.6 0.0
28/04:00am 10.8 8.5 10.5 98 0.2 NNW 13 20 7 11 1016.2 - 0.0
28/03:30am 10.8 8.1 10.3 97 0.3 NNW 15 22 8 12 1016.1 1016.4 0.0
28/03:00am 10.9 7.7 10.1 95 0.4 NNW 17 28 9 15 1016.2 1016.6 0.0
28/02:30am 10.9 8.1 10.0 94 0.5 NNW 15 20 8 11 1016.3 1016.7 0.0
28/02:00am 10.9 8.4 9.7 92 0.6 NNW 13 20 7 11 1016.6 - 0.0
28/01:30am 10.8 7.4 9.1 89 0.9 NNW 17 22 9 12 1016.7 1017.1 0.0
28/01:00am 10.7 7.6 9.0 89 0.9 NNW 15 26 8 14 1016.6 - 0.0
28/12:30am 10.8 6.7 8.7 87 1.1 NNW 20 32 11 17 1016.8 1017.2 0.0
28/12:00am 10.6 7.0 8.2 85 1.2 NNW 17 28 9 15 1016.9 1017.3 0.0
 
Date/Time
CST
Tmp

°C
App
Tmp
°C
Dew
Point
°C
Rel
Hum
%
Delta-T

°C
Wind Press
QNH
hPa
Press
MSL
hPa
Rain
since
9 am
mm
Dir
 
Spd
km/h
Gust
km/h
Spd
kts
Gust
kts
27/11:30pm 10.8 7.3 8.7 87 1.1 NNW 17 30 9 16 1017.3 1017.6 0.0
27/11:00pm 11.0 7.5 8.6 85 1.2 NNW 17 26 9 14 1017.4 - 0.0
27/10:30pm 11.1 7.6 8.7 85 1.2 NNW 17 28 9 15 1017.7 1018.0 0.0
27/10:00pm 11.8 7.8 8.1 78 1.8 NNW 19 32 10 17 1017.6 - 0.0
27/09:30pm 11.8 7.8 8.1 78 1.8 NNW 19 26 10 14 1017.9 1018.2 0.0
27/09:00pm 11.3 8.4 8.3 82 1.5 NNW 13 24 7 13 1018.0 1018.3 0.0
27/08:30pm 11.1 9.1 8.7 85 1.2 NW 9 15 5 8 1018.1 1018.4 0.0
27/08:00pm 11.8 8.9 8.1 78 1.8 NW 13 22 7 12 1018.2 - 0.0
27/07:30pm 12.0 9.4 7.7 75 2.1 NW 11 26 6 14 1018.3 1018.6 0.0
27/07:00pm 12.2 9.5 7.5 73 2.3 NW 11 22 6 12 1018.1 - 0.0
27/06:30pm 12.4 9.0 7.5 72 2.4 NW 15 26 8 14 1017.8 1018.1 0.0
27/06:00pm 12.3 8.6 7.8 74 2.2 NW 17 32 9 17 1017.8 1018.1 0.0
27/05:30pm 12.0 8.7 7.9 76 2.0 NW 15 26 8 14 1017.8 1018.1 0.0
27/05:00pm 12.4 8.7 8.1 75 2.2 NW 17 32 9 17 1017.6 - 0.0
27/04:30pm 12.2 8.2 8.1 76 2.0 NW 19 32 10 17 1017.4 1017.7 0.0
27/04:00pm 12.2 7.9 7.9 75 2.1 NW 20 33 11 18 1017.4 - 0.0
27/03:30pm 12.0 7.9 8.5 79 1.8 NW 20 32 11 17 1017.3 1017.6 0.0
27/03:00pm 11.9 8.8 8.7 81 1.6 NW 15 28 8 15 1017.4 1017.7 0.0
27/02:30pm 12.0 7.9 8.7 80 1.7 NW 20 39 11 21 1017.9 1018.2 0.0
27/02:00pm 12.0 8.1 8.5 79 1.8 NW 19 30 10 16 1018.1 - 0.0
27/01:30pm 12.0 8.2 9.0 82 1.5 NW 19 39 10 21 1018.4 1018.7 0.0
27/01:00pm 12.4 8.3 8.7 78 1.9 NNW 20 37 11 20 1019.2 - 0.0
27/12:30pm 11.7 8.5 8.6 81 1.6 NW 15 26 8 14 1019.6 1020.0 0.0
27/12:00pm 11.2 7.6 8.4 83 1.4 NW 17 28 9 15 1020.1 1020.5 0.0
27/11:30am 11.1 8.0 8.8 86 1.2 NW 15 26 8 14 1020.9 1021.2 0.0
27/11:00am 10.5 7.3 8.3 86 1.1 NW 15 26 8 14 1021.2 - 0.0
27/10:30am 10.3 7.8 8.2 87 1.0 NW 11 22 6 12 1021.3 1021.7 0.0
27/10:00am 9.8 7.7 8.4 91 0.7 NW 9 19 5 10 1021.3 - 0.0
27/09:30am 9.6 7.5 8.2 91 0.7 NNW 9 22 5 12 1021.8 1022.2 0.0
27/09:00am 9.2 7.5 8.4 95 0.4 NW 7 19 4 10 1021.8 1022.2 0.0
27/08:30am 9.0 6.9 8.4 96 0.3 NNW 9 15 5 8 1022.1 1022.5 0.0
27/08:00am 8.8 7.1 8.5 98 0.1 NW 7 15 4 8 1021.8 - 0.0
27/07:30am 8.5 6.8 8.2 98 0.1 NW 7 13 4 7 1022.1 1022.5 0.0
27/07:00am 8.6 6.9 8.3 98 0.1 NW 7 15 4 8 1022.2 - 0.0
27/06:30am 8.7 7.0 8.4 98 0.1 NW 7 15 4 8 1021.8 1022.2 0.0
27/06:00am 8.9 6.9 8.6 98 0.1 NW 9 20 5 11 1022.2 1022.6 0.0
27/05:30am 8.7 6.2 8.4 98 0.1 NNW 11 19 6 10 1022.1 1022.5 0.0
27/05:00am 8.6 6.5 8.2 97 0.2 NNW 9 17 5 9 1021.9 - 0.0
27/04:30am 8.3 6.1 7.9 97 0.2 NW 9 17 5 9 1022.2 1022.6 0.0
27/04:00am 7.8 6.0 7.1 95 0.3 NE 6 19 3 10 1022.3 - 0.0
27/03:30am 7.7 6.2 6.8 94 0.4 NNW 4 7 2 4 1022.6 1023.0 0.0
27/03:00am 8.1 6.2 6.9 92 0.6 NW 6 11 3 6 1023.0 1023.4 0.0
27/02:30am 7.7 6.1 6.5 92 0.6 N 4 13 2 7 1023.2 1023.6 0.0
27/02:00am 7.5 6.3 6.4 93 0.5 N 2 11 1 6 1023.1 - 0.0
27/01:30am 7.6 6.4 6.4 92 0.6 NNW 2 6 1 3 1023.5 1023.8 0.0
27/01:00am 7.9 6.0 6.8 93 0.5 WNW 6 11 3 6 1023.3 - 0.0
27/12:30am 7.9 6.1 7.0 94 0.4 NW 6 13 3 7 1023.6 1023.9 0.0
27/12:00am 8.2 5.8 7.1 93 0.5 NW 9 20 5 11 1023.8 1024.2 0.0
 
Date/Time
CST
Tmp

°C
App
Tmp
°C
Dew
Point
°C
Rel
Hum
%
Delta-T

°C
Wind Press
QNH
hPa
Press
MSL
hPa
Rain
since
9 am
mm
Dir
 
Spd
km/h
Gust
km/h
Spd
kts
Gust
kts
26/11:30pm 7.9 6.1 7.1 95 0.4 NNW 6 13 3 7 1023.9 1024.3 0.0
26/11:00pm 7.6 6.2 7.2 97 0.2 N 4 7 2 4 1024.4 - 0.0
26/10:30pm 7.6 7.0 7.3 98 0.1 CALM 0 4 0 2 1024.6 1025.0 0.0
26/10:00pm 7.9 7.0 7.8 99 0.0 NW 2 4 1 2 1024.8 - 0.0
26/09:30pm 8.0 6.8 7.9 99 0.0 NW 4 6 2 3 1024.9 1025.3 0.0
26/09:00pm 8.4 7.6 8.3 99 0.0 NW 2 4 1 2 1025.2 1025.6 0.0
26/08:30pm 8.9 8.3 8.8 99 0.0 NW 2 4 1 2 1025.2 1025.6 0.0
26/08:00pm 8.5 8.1 8.4 99 0.0 CALM 0 0 0 0 1025.2 - 0.0
26/07:30pm 9.4 8.5 9.3 99 0.1 NNW 4 7 2 4 1025.4 1025.8 0.0
26/07:00pm 9.5 9.0 9.4 99 0.1 NW 2 7 1 4 1025.3 - 0.0
26/06:30pm 9.5 8.3 9.4 99 0.1 NNW 6 11 3 6 1025.3 1025.7 0.0
26/06:00pm 9.5 8.3 9.4 99 0.1 NW 6 7 3 4 1025.2 1025.6 0.0
26/05:30pm 9.4 8.1 9.3 99 0.1 NNW 6 15 3 8 1025.2 1025.6 0.0
26/05:00pm 9.5 7.3 9.4 99 0.1 NNW 11 19 6 10 1025.1 - 0.0
26/04:30pm 9.7 7.5 9.4 98 0.2 NW 11 19 6 10 1025.0 1025.4 0.0
26/04:00pm 9.8 7.2 9.5 98 0.2 NNW 13 20 7 11 1025.0 - 0.0
26/03:30pm 10.2 8.6 10.1 99 0.1 NNW 9 17 5 9 1024.9 1025.3 0.0
26/03:00pm 10.5 9.3 10.3 99 0.1 NNW 7 15 4 8 1024.9 1025.3 0.0
26/02:30pm 10.7 9.2 10.4 98 0.2 NNW 9 20 5 11 1024.8 1025.2 0.0
26/02:00pm 11.1 9.1 10.2 94 0.5 NNW 11 24 6 13 1024.8 - 0.0
26/01:30pm 11.0 8.5 9.6 91 0.7 NW 13 22 7 12 1024.8 1025.2 0.0
26/01:00pm 11.3 8.3 9.2 87 1.1 NW 15 28 8 15 1025.2 - 0.0
26/12:30pm 11.4 8.5 9.7 89 0.9 NNW 15 26 8 14 1025.6 1026.0 0.0
26/12:00pm 11.2 7.9 9.6 90 0.8 NW 17 28 9 15 1026.1 1026.6 0.0
26/11:30am 11.3 8.4 9.6 89 0.9 NW 15 26 8 14 1026.6 1027.0 0.0
26/11:00am 11.0 7.8 9.8 92 0.6 NNW 17 24 9 13 1026.8 - 0.0
26/10:30am 10.7 8.7 10.1 96 0.3 NNW 11 22 6 12 1026.8 1027.2 0.0
26/10:00am 10.6 8.6 10.3 98 0.2 NW 11 17 6 9 1026.9 - 0.0
26/09:30am 10.2 8.5 9.9 98 0.2 NW 9 15 5 8 1026.8 1027.2 0.0
26/09:00am 9.8 8.9 9.3 97 0.3 NW 4 7 2 4 1026.7 1027.1 0.4
26/08:30am 9.5 8.2 9.2 98 0.2 NW 6 9 3 5 1026.4 1026.9 0.4
26/08:00am 8.9 7.3 8.8 99 0.0 NNW 7 9 4 5 1025.9 - 0.4
26/07:30am 8.3 6.7 8.2 99 0.0 WNW 6 7 3 4 1025.6 1026.0 0.2
26/07:00am 8.6 7.1 8.5 99 0.0 WNW 6 7 3 4 1025.2 - 0.2
26/06:30am 8.8 7.4 8.7 99 0.0 WNW 6 7 3 4 1025.0 1025.4 0.2
26/06:00am 8.6 7.1 8.5 99 0.0 WNW 6 7 3 4 1024.8 1025.2 0.2
26/05:30am 8.8 7.4 8.7 99 0.0 WNW 6 7 3 4 1024.5 1024.9 0.2
26/05:00am 8.7 6.7 8.6 99 0.0 WNW 9 11 5 6 1024.1 - 0.2
26/04:30am 9.1 7.6 9.0 99 0.0 WNW 7 9 4 5 1024.1 1024.5 0.2
26/04:00am 9.1 7.7 9.0 99 0.0 WNW 6 7 3 4 1023.8 - 0.2
26/03:30am 9.0 7.4 8.9 99 0.0 NW 7 9 4 5 1023.8 1024.2 0.2
26/03:00am 9.0 7.6 8.7 98 0.1 W 6 9 3 5 1023.8 1024.2 0.2
26/02:30am 9.3 8.3 8.8 97 0.2 W 4 6 2 3 1023.6 1023.9 0.2
26/02:00am 9.6 8.1 9.3 98 0.2 W 7 11 4 6 1023.1 - 0.2
26/01:30am 9.7 8.3 9.6 99 0.1 WNW 7 9 4 5 1023.1 1023.5 0.2
26/01:00am 9.8 8.1 9.7 99 0.1 WNW 9 13 5 7 1022.9 - 0.2
26/12:30am 9.9 8.5 9.6 98 0.2 NW 7 11 4 6 1023.1 1023.5 0.2
26/12:00am 9.9 8.7 9.6 98 0.2 W 6 7 3 4 1023.0 1023.4 0.2
 
Date/Time
CST
Tmp

°C
App
Tmp
°C
Dew
Point
°C
Rel
Hum
%
Delta-T

°C
Wind Press
QNH
hPa
Press
MSL
hPa
Rain
since
9 am
mm
Dir
 
Spd
km/h
Gust
km/h
Spd
kts
Gust
kts
25/11:30pm 9.9 8.7 9.4 97 0.3 W 6 9 3 5 1022.9 1023.3 0.2
25/11:00pm 9.9 8.5 9.4 97 0.3 W 7 9 4 5 1022.7 - 0.2
25/10:30pm 9.8 8.3 9.3 97 0.3 WNW 7 9 4 5 1022.6 1023.0 0.2
25/10:00pm 9.8 7.9 9.2 96 0.3 W 9 13 5 7 1022.4 - 0.2
25/09:30pm 9.6 8.2 9.0 96 0.3 WNW 6 7 3 4 1022.3 1022.7 0.2
25/09:00pm 9.4 7.9 8.6 95 0.4 W 6 7 3 4 1022.1 1022.5 0.2
25/08:30pm 9.6 8.6 8.8 95 0.4 WNW 4 7 2 4 1021.8 1022.2 0.2
25/08:00pm 9.6 8.2 8.7 94 0.4 WNW 6 7 3 4 1021.7 - 0.2
25/07:30pm 9.7 8.1 8.6 93 0.5 WNW 7 11 4 6 1021.4 1021.8 0.2
25/07:00pm 10.3 8.4 9.2 93 0.6 WNW 9 13 5 7 1021.0 - 0.2
25/06:30pm 10.5 9.4 9.9 96 0.3 WNW 6 9 3 5 1020.7 1021.0 0.2
25/06:00pm 10.7 9.4 10.1 96 0.3 WNW 7 13 4 7 1020.4 1020.7 0.2
25/05:30pm 10.9 9.8 10.1 95 0.4 WNW 6 9 3 5 1020.0 1020.4 0.2
25/05:00pm 11.0 9.4 10.1 94 0.5 W 9 13 5 7 1019.6 - 0.2
25/04:30pm 11.4 9.8 10.1 92 0.7 W 9 15 5 8 1019.3 1019.7 0.2
25/04:00pm 11.6 9.1 9.7 88 1.0 WNW 13 19 7 10 1018.8 - 0.0
25/03:30pm 12.0 9.2 9.9 87 1.1 NW 15 22 8 12 1018.6 1018.9 0.0
25/03:00pm 12.1 10.2 10.5 90 0.8 NW 11 17 6 9 1018.2 1018.5 0.0
25/02:30pm 12.4 10.5 10.5 88 1.0 NW 11 20 6 11 1017.8 1018.1 0.0
25/02:00pm 12.8 10.5 10.5 86 1.2 WNW 13 19 7 10 1017.7 - 0.0

Latest Capital City Observations: Canberra | Sydney | Melbourne | Brisbane | Adelaide | Perth | Hobart | Darwin

Other Formats:

Comma delimited format used in spreadsheet applications
http://www.bom.gov.au/fwo/IDS60901/IDS60901.94811.axf

JavaScript Object Notation format (JSON) in row-major order
http://www.bom.gov.au/fwo/IDS60901/IDS60901.94811.json